createdAt,value
2018-11-14T00:00:52.885Z,86.10
2018-11-14T00:03:23.164Z,86.00
2018-11-14T00:05:54.619Z,86.20
2018-11-14T00:08:24.908Z,85.70
2018-11-14T00:10:55.552Z,85.70
2018-11-14T00:13:25.855Z,85.80
2018-11-14T00:15:56.105Z,85.50
2018-11-14T00:18:26.407Z,85.50
2018-11-14T00:20:56.723Z,85.70
2018-11-14T00:23:27.001Z,85.90
2018-11-14T00:25:57.247Z,84.50
2018-11-14T00:28:27.559Z,84.60
2018-11-14T00:30:57.867Z,84.90
2018-11-14T00:33:28.150Z,84.60
2018-11-14T00:35:58.420Z,84.80
2018-11-14T00:38:28.693Z,84.50
2018-11-14T00:40:58.920Z,82.90
2018-11-14T00:43:29.241Z,82.50
2018-11-14T00:45:59.487Z,81.60
2018-11-14T00:48:29.737Z,81.50
2018-11-14T00:50:59.971Z,81.50
2018-11-14T00:53:30.221Z,81.80
2018-11-14T00:56:00.475Z,83.00
2018-11-14T00:58:30.768Z,82.50
2018-11-14T01:01:01.044Z,82.80
2018-11-14T01:03:31.298Z,82.90
2018-11-14T01:06:01.584Z,82.90
2018-11-14T01:08:31.848Z,83.70
2018-11-14T01:11:02.090Z,83.30
2018-11-14T01:13:32.337Z,83.70
2018-11-14T01:16:02.675Z,84.40
2018-11-14T01:18:32.923Z,83.50
2018-11-14T01:21:03.199Z,84.20
2018-11-14T01:23:33.453Z,85.40
2018-11-14T01:26:03.744Z,84.80
2018-11-14T01:28:34.004Z,85.20
2018-11-14T01:31:04.319Z,85.90
2018-11-14T01:33:35.401Z,86.30
2018-11-14T01:36:05.940Z,86.80
2018-11-14T01:38:36.172Z,86.80
2018-11-14T01:41:06.924Z,84.80
2018-11-14T01:43:37.140Z,84.50
2018-11-14T01:46:07.439Z,84.20
2018-11-14T01:48:37.684Z,84.40
2018-11-14T01:51:07.952Z,82.20
2018-11-14T01:53:38.183Z,81.40
2018-11-14T01:56:08.504Z,80.50
2018-11-14T01:58:38.795Z,80.10
2018-11-14T02:01:09.068Z,79.90
2018-11-14T02:03:39.345Z,78.30
2018-11-14T02:06:09.596Z,78.00
2018-11-14T02:08:39.864Z,78.00
2018-11-14T02:11:10.112Z,77.40
2018-11-14T02:13:40.408Z,77.20
2018-11-14T02:16:10.665Z,77.10
2018-11-14T02:18:40.932Z,77.30
2018-11-14T02:21:11.152Z,77.50
2018-11-14T02:23:41.524Z,77.80
2018-11-14T02:26:11.800Z,78.70
2018-11-14T02:28:42.064Z,78.60
2018-11-14T02:31:12.344Z,79.60
2018-11-14T02:33:42.598Z,80.10
2018-11-14T02:36:12.866Z,80.50
2018-11-14T02:38:43.121Z,81.00
2018-11-14T02:41:13.392Z,81.60
2018-11-14T02:43:43.698Z,82.80
2018-11-14T02:46:13.952Z,83.60
2018-11-14T02:48:44.188Z,84.40
2018-11-14T02:51:26.966Z,85.20
2018-11-14T02:53:57.337Z,86.60
2018-11-14T02:56:27.617Z,87.60
2018-11-14T02:58:57.860Z,88.00
2018-11-14T03:01:28.146Z,88.50
2018-11-14T03:03:58.455Z,89.00
2018-11-14T03:06:28.704Z,89.40
2018-11-14T03:08:58.959Z,89.80
2018-11-14T03:11:29.201Z,90.10
2018-11-14T03:13:59.444Z,90.60
2018-11-14T03:16:29.703Z,90.70
2018-11-14T03:18:59.920Z,90.80
2018-11-14T03:21:30.170Z,90.80
2018-11-14T03:24:00.403Z,90.80
2018-11-14T03:26:30.671Z,90.70
2018-11-14T03:29:00.940Z,91.20
2018-11-14T03:31:31.213Z,90.90
2018-11-14T03:34:01.568Z,91.00
2018-11-14T03:36:31.792Z,91.10
2018-11-14T03:39:02.038Z,91.20
2018-11-14T03:41:32.387Z,91.30
2018-11-14T03:44:02.624Z,91.50
2018-11-14T03:46:32.858Z,91.60
2018-11-14T03:49:03.143Z,91.60
2018-11-14T03:51:33.436Z,91.90
2018-11-14T03:54:03.709Z,92.00
2018-11-14T03:56:33.972Z,92.00
2018-11-14T03:59:04.607Z,92.20
2018-11-14T04:01:34.856Z,92.60
2018-11-14T04:04:05.231Z,92.30
2018-11-14T04:06:35.494Z,92.40
2018-11-14T04:09:09.708Z,92.50
2018-11-14T04:11:39.980Z,92.40
2018-11-14T04:14:10.377Z,92.50
2018-11-14T04:16:40.668Z,92.60
2018-11-14T04:19:10.925Z,92.70
2018-11-14T04:21:41.173Z,92.70
2018-11-14T04:24:11.439Z,92.80
2018-11-14T04:26:41.685Z,92.90
2018-11-14T04:29:11.928Z,92.90
2018-11-14T04:31:42.213Z,92.90
2018-11-14T04:34:12.491Z,92.90
2018-11-14T04:36:42.708Z,93.30
2018-11-14T04:39:13.068Z,93.10
2018-11-14T04:41:43.336Z,93.10
2018-11-14T04:44:13.556Z,93.20
2018-11-14T04:46:43.852Z,93.20
2018-11-14T04:49:14.106Z,93.40
2018-11-14T04:51:44.360Z,93.80
2018-11-14T04:54:14.641Z,93.30
2018-11-14T04:56:44.924Z,93.20
2018-11-14T04:59:15.200Z,93.30
2018-11-14T05:01:45.457Z,93.70
2018-11-14T05:04:15.691Z,93.40
2018-11-14T05:06:45.932Z,93.30
2018-11-14T05:09:16.172Z,93.00
2018-11-14T05:14:16.298Z,93.10
2018-11-14T05:16:46.570Z,93.50
2018-11-14T05:19:16.800Z,93.30
2018-11-14T05:21:47.070Z,93.50
2018-11-14T05:24:17.300Z,93.50
2018-11-14T05:26:47.568Z,93.50
2018-11-14T05:29:17.823Z,93.50
2018-11-14T05:31:48.142Z,93.60
2018-11-14T05:34:18.335Z,93.70
2018-11-14T05:36:48.556Z,93.60
2018-11-14T05:39:18.824Z,93.70
2018-11-14T05:41:49.088Z,93.80
2018-11-14T05:44:19.355Z,94.00
2018-11-14T05:46:49.607Z,94.00
2018-11-14T05:49:19.856Z,94.10
2018-11-14T05:51:50.104Z,94.10
2018-11-14T05:54:20.372Z,94.00
2018-11-14T05:56:50.636Z,93.70
2018-11-14T05:59:20.932Z,92.90
2018-11-14T06:01:51.228Z,92.80
2018-11-14T06:04:21.487Z,92.50
2018-11-14T06:06:51.756Z,92.20
2018-11-14T06:09:22.377Z,91.80
2018-11-14T06:11:52.632Z,91.00
2018-11-14T06:14:22.876Z,89.80
2018-11-14T06:16:53.643Z,89.40
2018-11-14T06:19:23.901Z,86.00
2018-11-14T06:21:54.203Z,85.00
2018-11-14T06:24:24.438Z,84.60
2018-11-14T06:26:54.644Z,84.50
2018-11-14T06:29:25.004Z,83.30
2018-11-14T06:31:55.261Z,82.70
2018-11-14T06:34:25.616Z,82.60
2018-11-14T06:36:55.878Z,81.60
2018-11-14T06:39:26.151Z,78.70
2018-11-14T06:41:56.440Z,75.30
2018-11-14T06:44:26.707Z,75.20
2018-11-14T06:46:56.977Z,75.60
2018-11-14T06:49:27.256Z,76.10
2018-11-14T06:51:57.523Z,74.00
2018-11-14T06:54:27.813Z,74.20
2018-11-14T06:56:58.157Z,74.10
2018-11-14T06:59:28.457Z,74.20
2018-11-14T07:01:58.721Z,73.40
2018-11-14T07:04:28.966Z,73.40
2018-11-14T07:06:59.228Z,73.70
2018-11-14T07:09:29.461Z,72.70
2018-11-14T07:11:59.756Z,72.50
2018-11-14T07:14:30.226Z,72.60
2018-11-14T07:17:00.460Z,72.90
2018-11-14T07:19:30.785Z,73.30
2018-11-14T07:22:01.016Z,73.70
2018-11-14T07:24:31.376Z,72.80
2018-11-14T07:27:01.552Z,73.00
2018-11-14T07:29:31.860Z,73.30
2018-11-14T07:32:02.114Z,71.50
2018-11-14T07:34:32.393Z,71.50
2018-11-14T07:37:02.740Z,71.50
2018-11-14T07:39:33.002Z,70.80
2018-11-14T07:42:03.292Z,70.00
2018-11-14T07:44:33.660Z,69.60
2018-11-14T07:47:03.946Z,68.30
2018-11-14T07:49:34.201Z,67.70
2018-11-14T07:52:04.571Z,68.30
2018-11-14T07:54:34.935Z,68.90
2018-11-14T07:57:05.409Z,69.20
2018-11-14T07:59:35.725Z,68.10
2018-11-14T08:02:06.816Z,67.50
2018-11-14T08:04:37.066Z,67.90
2018-11-14T08:07:07.432Z,65.70
2018-11-14T08:09:37.699Z,65.60
2018-11-14T08:12:08.122Z,65.70
2018-11-14T08:14:38.414Z,64.40
2018-11-14T08:17:08.714Z,65.10
2018-11-14T08:19:38.964Z,61.90
2018-11-14T08:22:09.296Z,60.40
2018-11-14T08:24:39.615Z,58.30
2018-11-14T08:27:09.846Z,58.50
2018-11-14T08:29:40.168Z,58.70
2018-11-14T08:32:10.440Z,58.80
2018-11-14T08:34:40.733Z,58.30
2018-11-14T08:37:10.985Z,58.90
2018-11-14T08:39:41.248Z,59.30
2018-11-14T08:42:11.580Z,58.40
2018-11-14T08:44:41.885Z,58.00
2018-11-14T08:47:12.192Z,57.90
2018-11-14T08:49:42.437Z,57.20
2018-11-14T08:52:12.732Z,57.00
2018-11-14T08:54:43.037Z,57.20
2018-11-14T08:57:13.322Z,57.40
2018-11-14T08:59:43.584Z,57.20
2018-11-14T09:02:13.857Z,58.10
2018-11-14T09:04:44.124Z,58.00
2018-11-14T09:07:14.620Z,57.80
2018-11-14T09:09:44.926Z,58.20
2018-11-14T09:12:15.330Z,58.10
2018-11-14T09:14:45.515Z,56.80
2018-11-14T09:17:15.941Z,53.80
2018-11-14T09:19:46.194Z,51.90
2018-11-14T09:22:16.515Z,51.80
2018-11-14T09:24:46.859Z,52.20
2018-11-14T09:27:17.109Z,52.30
2018-11-14T09:29:47.347Z,50.90
2018-11-14T09:32:17.651Z,50.50
2018-11-14T09:34:48.017Z,50.60
2018-11-14T09:37:18.301Z,51.60
2018-11-14T09:39:49.040Z,49.30
2018-11-14T09:42:19.316Z,47.70
2018-11-14T09:44:49.631Z,48.60
2018-11-14T09:47:19.952Z,46.10
2018-11-14T09:49:50.272Z,47.70
2018-11-14T09:52:20.531Z,48.40
2018-11-14T09:54:50.849Z,48.70
2018-11-14T09:57:21.161Z,46.80
2018-11-14T09:59:52.014Z,47.70
2018-11-14T10:02:22.317Z,46.00
2018-11-14T10:04:52.602Z,46.00
2018-11-14T10:07:22.841Z,46.40
2018-11-14T10:09:53.109Z,44.80
2018-11-14T10:12:23.396Z,45.30
2018-11-14T10:14:53.670Z,45.80
2018-11-14T10:17:23.970Z,46.80
2018-11-14T10:19:54.224Z,45.10
2018-11-14T10:22:24.508Z,47.50
2018-11-14T10:24:54.845Z,47.90
2018-11-14T10:27:25.073Z,47.90
2018-11-14T10:29:55.405Z,47.10
2018-11-14T10:32:25.658Z,45.00
2018-11-14T10:34:55.961Z,44.70
2018-11-14T10:37:26.248Z,45.30
2018-11-14T10:39:56.582Z,45.90
2018-11-14T10:42:28.320Z,46.10
2018-11-14T10:44:58.581Z,46.40
2018-11-14T10:47:28.867Z,46.30
2018-11-14T10:49:59.226Z,44.20
2018-11-14T10:52:29.476Z,45.00
2018-11-14T10:54:59.797Z,43.00
2018-11-14T10:57:30.146Z,42.80
2018-11-14T11:00:00.447Z,43.50
2018-11-14T11:02:35.931Z,43.60
2018-11-14T11:07:19.097Z,43.90
2018-11-14T11:09:54.747Z,42.70
2018-11-14T11:12:30.235Z,42.90
2018-11-14T11:15:05.897Z,42.10
2018-11-14T11:17:41.333Z,43.60
2018-11-14T11:20:11.672Z,43.00
2018-11-14T11:22:41.893Z,42.30
2018-11-14T11:25:12.206Z,43.30
2018-11-14T11:27:42.515Z,42.70
2018-11-14T11:30:13.161Z,41.60
2018-11-14T11:32:43.404Z,42.70
2018-11-14T11:35:13.697Z,42.30
2018-11-14T11:37:44.020Z,41.90
2018-11-14T11:40:14.302Z,42.40
2018-11-14T11:42:44.573Z,40.20
2018-11-14T11:45:14.828Z,38.70
2018-11-14T11:47:45.080Z,38.90
2018-11-14T11:50:15.380Z,38.20
2018-11-14T11:52:45.672Z,39.60
2018-11-14T11:55:15.965Z,39.40
2018-11-14T11:57:46.337Z,40.90
2018-11-14T12:00:16.704Z,39.70
2018-11-14T12:02:46.873Z,40.10
2018-11-14T12:05:17.160Z,40.30
2018-11-14T12:07:47.485Z,40.50
2018-11-14T12:10:17.797Z,40.90
2018-11-14T12:12:48.037Z,41.10
2018-11-14T12:15:18.303Z,40.50
2018-11-14T12:17:48.622Z,40.30
2018-11-14T12:20:18.887Z,39.80
2018-11-14T12:22:49.204Z,40.20
2018-11-14T12:25:19.535Z,40.40
2018-11-14T12:27:49.802Z,38.70
2018-11-14T12:30:20.161Z,39.80
2018-11-14T12:32:50.369Z,39.80
2018-11-14T12:35:20.726Z,38.80
2018-11-14T12:37:50.892Z,38.90
2018-11-14T12:40:21.186Z,38.40
2018-11-14T12:42:51.420Z,37.50
2018-11-14T12:45:21.726Z,37.40
2018-11-14T12:47:52.045Z,37.80
2018-11-14T12:50:22.376Z,37.40
2018-11-14T12:52:52.644Z,37.30
2018-11-14T12:55:22.930Z,36.20
2018-11-14T12:57:53.168Z,35.70
2018-11-14T13:00:23.547Z,35.90
2018-11-14T13:02:53.795Z,36.90
2018-11-14T13:05:24.100Z,37.50
2018-11-14T13:07:54.364Z,38.40
2018-11-14T13:10:24.608Z,39.60
2018-11-14T13:12:54.919Z,40.10
2018-11-14T13:15:25.201Z,40.50
2018-11-14T13:17:55.483Z,40.50
2018-11-14T13:20:26.039Z,41.30
2018-11-14T13:22:56.318Z,41.60
2018-11-14T13:25:27.731Z,42.10
2018-11-14T13:27:58.090Z,42.20
2018-11-14T13:30:28.331Z,42.30
2018-11-14T13:32:58.601Z,42.80
2018-11-14T13:35:29.321Z,43.40
2018-11-14T13:37:59.601Z,43.90
2018-11-14T13:40:29.931Z,44.60
2018-11-14T13:43:00.324Z,44.70
2018-11-14T13:45:30.488Z,44.70
2018-11-14T13:48:00.760Z,45.20
2018-11-14T13:50:31.276Z,45.80
2018-11-14T13:53:01.320Z,45.60
2018-11-14T13:55:31.660Z,45.60
2018-11-14T13:58:01.877Z,45.00
2018-11-14T14:00:32.249Z,45.20
2018-11-14T14:03:02.530Z,45.80
2018-11-14T14:05:32.845Z,45.10
2018-11-14T14:08:03.158Z,44.60
2018-11-14T14:10:33.500Z,44.70
2018-11-14T14:13:03.823Z,44.90
2018-11-14T14:15:34.101Z,45.80
2018-11-14T14:18:04.461Z,46.30
2018-11-14T14:20:34.731Z,46.60
2018-11-14T14:23:05.106Z,46.90
2018-11-14T14:25:35.452Z,46.80
2018-11-14T14:28:05.765Z,46.30
2018-11-14T14:30:36.055Z,47.10
2018-11-14T14:33:06.357Z,47.00
2018-11-14T14:35:36.602Z,47.20
2018-11-14T14:38:06.914Z,47.20
2018-11-14T14:40:37.189Z,47.50
2018-11-14T14:43:07.464Z,47.70
2018-11-14T14:45:38.011Z,47.90
2018-11-14T14:48:08.312Z,48.30
2018-11-14T14:50:38.567Z,48.40
2018-11-14T14:53:08.901Z,48.70
2018-11-14T14:55:39.164Z,48.80
2018-11-14T14:58:09.422Z,49.20
2018-11-14T15:00:39.661Z,49.20
2018-11-14T15:03:09.934Z,49.80
2018-11-14T15:05:40.184Z,50.00
2018-11-14T15:08:10.463Z,49.80
2018-11-14T15:10:40.817Z,49.70
2018-11-14T15:13:11.084Z,50.70
2018-11-14T15:15:41.456Z,50.20
2018-11-14T15:18:11.656Z,50.60
2018-11-14T15:20:41.975Z,50.70
2018-11-14T15:23:12.252Z,50.90
2018-11-14T15:25:42.549Z,51.10
2018-11-14T15:28:12.793Z,50.90
2018-11-14T15:30:43.078Z,51.10
2018-11-14T15:33:13.401Z,51.10
2018-11-14T15:35:43.750Z,51.40
2018-11-14T15:38:14.070Z,51.50
2018-11-14T15:40:44.326Z,51.80
2018-11-14T15:43:14.714Z,51.50
2018-11-14T15:45:44.948Z,52.30
2018-11-14T15:48:15.270Z,52.60
2018-11-14T15:50:45.593Z,53.20
2018-11-14T15:53:15.982Z,53.60
2018-11-14T15:55:46.284Z,54.20
2018-11-14T15:58:16.600Z,54.90
2018-11-14T16:00:46.870Z,55.30
2018-11-14T16:03:17.212Z,56.00
2018-11-14T16:05:47.604Z,57.30
2018-11-14T16:08:17.836Z,57.90
2018-11-14T16:10:48.085Z,58.60
2018-11-14T16:13:18.377Z,59.30
2018-11-14T16:15:48.659Z,60.00
2018-11-14T16:18:18.874Z,60.30
2018-11-14T16:20:49.199Z,61.10
2018-11-14T16:23:19.473Z,62.00
2018-11-14T16:25:49.849Z,62.40
2018-11-14T16:28:20.148Z,62.90
2018-11-14T16:30:50.482Z,62.90
2018-11-14T16:33:20.771Z,63.30
2018-11-14T16:35:51.067Z,63.60
2018-11-14T16:38:21.381Z,64.40
2018-11-14T16:40:51.590Z,64.80
2018-11-14T16:43:21.874Z,64.90
2018-11-14T16:45:52.558Z,65.30
2018-11-14T16:48:22.892Z,65.90
2018-11-14T16:50:53.360Z,66.10
2018-11-14T16:53:23.637Z,66.80
2018-11-14T16:55:53.999Z,66.60
2018-11-14T16:58:24.285Z,66.90
2018-11-14T17:00:54.753Z,67.40
2018-11-14T17:03:25.082Z,67.40
2018-11-14T17:05:55.930Z,67.50
2018-11-14T17:08:26.379Z,68.80
2018-11-14T17:10:56.855Z,68.40
2018-11-14T17:13:27.221Z,68.90
2018-11-14T17:15:57.585Z,69.30
2018-11-14T17:18:27.893Z,69.40
2018-11-14T17:20:58.524Z,69.60
2018-11-14T17:23:29.158Z,70.10
2018-11-14T17:25:59.680Z,70.50
2018-11-14T17:28:30.058Z,71.20
2018-11-14T17:31:00.292Z,71.80
2018-11-14T17:33:30.736Z,72.00
2018-11-14T17:36:01.101Z,72.00
2018-11-14T17:38:31.350Z,72.30
2018-11-14T17:41:03.835Z,72.60
2018-11-14T17:43:34.435Z,72.70
2018-11-14T17:46:05.261Z,72.50
2018-11-14T17:48:35.635Z,72.70
2018-11-14T17:51:06.465Z,73.30
2018-11-14T17:53:36.950Z,73.30
2018-11-14T17:56:07.288Z,73.30
2018-11-14T17:58:37.632Z,73.50
2018-11-14T18:01:08.135Z,73.80
2018-11-14T18:03:38.538Z,74.10
2018-11-14T18:06:08.997Z,74.20
2018-11-14T18:08:39.480Z,74.40
2018-11-14T18:11:09.852Z,74.80
2018-11-14T18:13:40.636Z,75.20
2018-11-14T18:16:10.930Z,75.70
2018-11-14T18:18:41.376Z,75.70
2018-11-14T18:21:12.315Z,75.80
2018-11-14T18:23:43.108Z,76.20
2018-11-14T18:26:13.654Z,76.70
2018-11-14T18:28:44.158Z,76.80
2018-11-14T18:31:15.464Z,77.30
2018-11-14T18:33:46.439Z,77.50
2018-11-14T18:36:20.551Z,77.70
2018-11-14T18:38:51.248Z,77.80
2018-11-14T18:41:22.668Z,77.70
2018-11-14T18:43:53.322Z,78.00
2018-11-14T18:46:23.729Z,78.30
2018-11-14T18:48:55.034Z,78.30
2018-11-14T18:51:27.512Z,78.30
2018-11-14T18:53:57.874Z,78.20
2018-11-14T18:56:28.529Z,78.10
2018-11-14T18:58:58.880Z,79.10
2018-11-14T19:01:29.212Z,78.90
2018-11-14T19:03:59.541Z,79.20
2018-11-14T19:06:29.960Z,79.00
2018-11-14T19:09:00.277Z,79.20
2018-11-14T19:11:30.558Z,79.20
2018-11-14T19:14:00.913Z,79.90
2018-11-14T19:16:31.949Z,80.30
2018-11-14T19:19:02.629Z,81.10
2018-11-14T19:21:32.622Z,80.40
2018-11-14T19:24:03.767Z,80.40
2018-11-14T19:26:34.141Z,80.90
2018-11-14T19:29:04.738Z,81.00
2018-11-14T19:31:35.088Z,80.90
2018-11-14T19:34:05.777Z,81.30
2018-11-14T19:36:36.146Z,81.20
2018-11-14T19:39:10.704Z,81.10
2018-11-14T19:41:41.026Z,81.70
2018-11-14T19:44:11.315Z,80.90
2018-11-14T19:46:41.611Z,81.80
2018-11-14T19:49:11.981Z,81.20
2018-11-14T19:51:42.237Z,81.20
2018-11-14T19:54:12.538Z,81.10
2018-11-14T19:56:42.921Z,81.10
2018-11-14T19:59:13.161Z,81.40
2018-11-14T20:01:43.469Z,81.20
2018-11-14T20:04:13.813Z,81.70
2018-11-14T20:06:44.092Z,82.30
2018-11-14T20:09:14.344Z,82.80
2018-11-14T20:11:44.625Z,82.90
2018-11-14T20:14:15.714Z,83.50
2018-11-14T20:16:45.974Z,83.50
2018-11-14T20:19:16.248Z,84.40
2018-11-14T20:21:46.529Z,84.10
2018-11-14T20:24:16.843Z,83.60
2018-11-14T20:26:47.129Z,83.80
2018-11-14T20:29:17.416Z,82.70
2018-11-14T20:31:47.780Z,82.70
2018-11-14T20:34:18.031Z,82.60
2018-11-14T20:36:48.288Z,83.00
2018-11-14T20:39:18.587Z,83.10
2018-11-14T20:41:48.901Z,83.50
2018-11-14T20:44:19.210Z,83.80
2018-11-14T20:46:49.533Z,84.10
2018-11-14T20:49:19.932Z,84.10
2018-11-14T20:51:50.200Z,84.00
2018-11-14T20:54:20.462Z,84.20
2018-11-14T20:56:50.751Z,84.20
2018-11-14T20:59:21.093Z,84.40
2018-11-14T21:01:51.493Z,84.30
2018-11-14T21:04:21.853Z,84.20
2018-11-14T21:06:54.124Z,84.20
2018-11-14T21:09:24.420Z,84.40
2018-11-14T21:11:54.693Z,84.30
2018-11-14T21:14:24.932Z,84.60
2018-11-14T21:16:55.238Z,84.80
2018-11-14T21:19:25.779Z,84.60
2018-11-14T21:21:56.069Z,84.60
2018-11-14T21:24:26.333Z,84.60
2018-11-14T21:26:56.583Z,84.40
2018-11-14T21:29:26.911Z,84.50
2018-11-14T21:31:57.176Z,85.50
2018-11-14T21:34:28.780Z,85.00
2018-11-14T21:36:59.110Z,85.30
2018-11-14T21:39:29.375Z,85.40
2018-11-14T21:41:59.692Z,85.00
2018-11-14T21:44:29.956Z,84.80
2018-11-14T21:47:00.238Z,84.90
2018-11-14T21:49:31.419Z,84.90
2018-11-14T21:52:01.680Z,84.70
2018-11-14T21:54:31.917Z,84.90
2018-11-14T21:57:02.202Z,85.10
2018-11-14T21:59:32.421Z,85.40
2018-11-14T22:02:02.716Z,85.80
2018-11-14T22:04:32.994Z,86.10
2018-11-14T22:07:03.296Z,86.30
2018-11-14T22:09:33.564Z,86.70
2018-11-14T22:12:03.882Z,87.10
2018-11-14T22:14:34.128Z,87.60
2018-11-14T22:17:04.434Z,88.30
2018-11-14T22:19:34.781Z,88.80
2018-11-14T22:22:05.185Z,88.90
2018-11-14T22:24:35.454Z,89.40
2018-11-14T22:27:05.715Z,89.30
2018-11-14T22:29:36.013Z,89.40
2018-11-14T22:32:06.635Z,89.60
2018-11-14T22:34:36.931Z,89.40
2018-11-14T22:37:07.388Z,89.40
2018-11-14T22:39:37.693Z,89.40
2018-11-14T22:42:08.000Z,89.30
2018-11-14T22:44:38.240Z,89.40
2018-11-14T22:47:08.526Z,89.50
2018-11-14T22:49:38.745Z,89.80
2018-11-14T22:52:09.440Z,89.70
2018-11-14T22:54:39.739Z,89.70
2018-11-14T22:57:09.984Z,89.80
2018-11-14T22:59:40.460Z,90.00
2018-11-14T23:02:10.754Z,90.10
2018-11-14T23:04:41.010Z,90.20
2018-11-14T23:07:11.340Z,90.30
2018-11-14T23:09:41.673Z,90.40
2018-11-14T23:12:11.843Z,90.50
2018-11-14T23:14:42.124Z,90.60
2018-11-14T23:17:12.605Z,90.70
2018-11-14T23:19:42.878Z,90.80
2018-11-14T23:22:13.111Z,90.80
2018-11-14T23:24:43.395Z,90.80
2018-11-14T23:27:13.664Z,90.80
2018-11-14T23:29:43.941Z,90.80
2018-11-14T23:32:14.216Z,90.90
2018-11-14T23:34:49.594Z,90.90
2018-11-14T23:37:19.858Z,91.30
2018-11-14T23:39:50.134Z,91.00
2018-11-14T23:42:20.440Z,91.00
2018-11-14T23:44:50.746Z,91.10
2018-11-14T23:47:21.027Z,91.20
2018-11-14T23:49:51.393Z,91.40
2018-11-14T23:52:21.667Z,91.70
2018-11-14T23:54:51.946Z,91.80
2018-11-14T23:57:22.181Z,91.90
2018-11-14T23:59:52.584Z,92.00
